Time;durP1;ratioP1;P1;durP2;ratioP2;P2;SDS_P1;SDS_P2;PMS_P1;PMS_P2;Temp;Humidity;BMP_temperature;BMP_pressure;BME280_temperature;BME280_humidity;BME280_pressure;Samples;Min_cycle;Max_cycle;Signal;HPM_P1;HPM_P2
2022/04/19 00:01:07;;;;;;;3.50;2.65;;;;;;;8.05;51.08;98657.19;2621099;54;20042;-64
2022/04/19 00:03:40;;;;;;;7.55;3.35;;;;;;;8.19;50.19;98659.00;2621472;54;20027;-64
2022/04/19 00:06:10;;;;;;;6.22;4.43;;;;;;;8.20;50.44;98657.19;2619960;47;20095;-65
2022/04/19 00:08:39;;;;;;;5.85;3.88;;;;;;;8.21;50.77;98655.41;2620404;54;20037;-65
2022/04/19 00:11:09;;;;;;;4.97;3.63;;;;;;;8.04;50.38;98652.94;2620949;47;20030;-64
2022/04/19 00:13:39;;;;;;;7.20;3.75;;;;;;;7.86;51.07;98652.44;2621135;54;20038;-64
2022/04/19 00:16:09;;;;;;;8.07;4.15;;;;;;;7.63;51.54;98650.69;2621668;39;20434;-65
2022/04/19 00:18:41;;;;;;;6.65;3.47;;;;;;;7.52;52.40;98650.28;2620685;54;20063;-64
2022/04/19 00:21:10;;;;;;;6.10;3.20;;;;;;;7.55;52.17;98653.38;2619539;47;20030;-64
2022/04/19 00:23:40;;;;;;;4.10;3.30;;;;;;;7.52;52.41;98647.66;2621087;46;20103;-64
2022/04/19 00:26:10;;;;;;;5.63;3.58;;;;;;;7.52;52.55;98651.09;2622282;54;20023;-64
2022/04/19 00:28:39;;;;;;;4.00;3.60;;;;;;;7.52;52.73;98643.19;2622889;54;20045;-64
2022/04/19 00:31:09;;;;;;;4.15;3.20;;;;;;;7.41;52.68;98644.41;2622519;54;20034;-64
2022/04/19 00:33:44;;;;;;;5.32;3.60;;;;;;;7.35;52.96;98636.44;2622069;54;20815;-65
2022/04/19 00:36:14;;;;;;;4.80;3.40;;;;;;;7.32;53.13;98642.84;2622602;54;20038;-64
2022/04/19 00:38:44;;;;;;;4.70;3.42;;;;;;;7.23;53.07;98637.84;2621903;47;20589;-65
2022/04/19 00:41:14;;;;;;;4.15;2.72;;;;;;;7.20;52.98;98636.38;2622356;47;20030;-65
2022/04/19 00:43:44;;;;;;;4.85;3.20;;;;;;;7.27;52.98;98639.94;2622614;47;20041;-65
2022/04/19 00:46:13;;;;;;;5.05;3.42;;;;;;;7.24;52.25;98637.66;2622925;54;20041;-65
2022/04/19 00:48:46;;;;;;;4.85;3.35;;;;;;;7.12;52.64;98633.78;2622034;47;20034;-64
2022/04/19 00:51:17;;;;;;;4.15;3.13;;;;;;;6.99;52.72;98628.28;2622214;47;20034;-65
2022/04/19 00:53:48;;;;;;;6.50;3.72;;;;;;;6.93;52.94;98629.78;2619991;54;20034;-64
2022/04/19 00:56:18;;;;;;;3.97;3.13;;;;;;;6.91;53.11;98622.09;2619457;54;20114;-65
2022/04/19 00:58:48;;;;;;;5.68;3.60;;;;;;;6.88;53.25;98617.19;2619502;54;20066;-64
2022/04/19 01:01:18;;;;;;;5.72;3.55;;;;;;;6.89;52.91;98612.72;2619773;47;20036;-65
2022/04/19 01:03:51;;;;;;;5.15;3.30;;;;;;;6.91;53.42;98608.94;2619233;47;20038;-64
2022/04/19 01:06:24;;;;;;;5.85;3.28;;;;;;;6.89;52.86;98618.00;2619421;47;20038;-65
2022/04/19 01:08:55;;;;;;;4.82;3.50;;;;;;;6.90;53.35;98617.03;2619071;54;20031;-65
2022/04/19 01:14:13;;;;;;;5.75;3.13;;;;;;;6.91;53.02;98614.22;2622298;54;20030;-65
2022/04/19 01:16:43;;;;;;;3.85;3.38;;;;;;;6.95;53.01;98614.69;2623813;54;20045;-65
2022/04/19 01:19:17;;;;;;;3.60;2.90;;;;;;;6.96;52.85;98611.06;2623259;54;20027;-65
2022/04/19 01:21:54;;;;;;;3.13;2.63;;;;;;;6.92;52.79;98612.41;2623393;54;20029;-65
2022/04/19 01:24:32;;;;;;;4.43;2.60;;;;;;;6.95;52.30;98609.44;2623608;46;20027;-65
2022/04/19 01:27:01;;;;;;;5.03;2.70;;;;;;;6.91;52.45;98606.31;2623046;54;20077;-65
2022/04/19 01:29:33;;;;;;;5.88;2.90;;;;;;;6.88;52.40;98606.66;2623396;47;20026;-65
2022/04/19 01:32:06;;;;;;;4.93;3.30;;;;;;;6.83;52.41;98606.38;2622989;54;20561;-66
2022/04/19 01:34:36;;;;;;;3.30;2.65;;;;;;;6.79;52.74;98599.81;2621190;53;20166;-65
2022/04/19 01:37:15;;;;;;;3.40;3.05;;;;;;;6.68;52.41;98601.03;2620916;53;20042;-64
2022/04/19 01:42:39;;;;;;;3.13;2.83;;;;;;;6.78;52.92;98605.28;2621591;54;20031;-62
2022/04/19 01:45:10;;;;;;;6.78;2.80;;;;;;;6.83;52.47;98598.50;2621953;54;20068;-64
2022/04/19 01:47:40;;;;;;;5.70;2.83;;;;;;;6.77;52.30;98598.34;2621439;54;20037;-65
2022/04/19 01:50:12;;;;;;;6.32;2.58;;;;;;;6.66;52.58;98600.41;2623601;39;20412;-64
2022/04/19 01:52:45;;;;;;;4.32;2.70;;;;;;;6.63;52.86;98594.66;2622109;54;20197;-63
2022/04/19 01:55:23;;;;;;;4.43;3.25;;;;;;;6.54;52.77;98595.69;2622113;49;20026;-66
2022/04/19 01:57:59;;;;;;;4.03;3.30;;;;;;;6.38;53.49;98602.66;2620950;54;20018;-65
2022/04/19 02:00:38;;;;;;;4.13;3.50;;;;;;;6.30;54.08;98597.44;2621221;54;20085;-65
2022/04/19 02:03:10;;;;;;;5.97;3.88;;;;;;;6.25;54.12;98597.13;2621017;54;20032;-64
2022/04/19 02:05:40;;;;;;;3.28;2.97;;;;;;;6.24;54.24;98597.28;2621520;46;20044;-64
2022/04/19 02:08:12;;;;;;;3.28;2.90;;;;;;;6.20;54.64;98584.53;2621798;54;20573;-63
2022/04/19 02:10:43;;;;;;;4.68;3.33;;;;;;;6.25;54.89;98589.25;2621618;54;20037;-64
2022/04/19 02:13:13;;;;;;;4.32;3.55;;;;;;;6.30;54.86;98586.13;2621257;54;20033;-65
2022/04/19 02:16:01;;;;;;;5.80;3.38;;;;;;;6.25;54.83;98585.81;2623285;31;20518;-65
2022/04/19 02:18:32;;;;;;;5.53;3.75;;;;;;;6.22;54.89;98584.34;2622078;54;20531;-65
2022/04/19 02:21:02;;;;;;;7.10;3.92;;;;;;;6.10;55.39;98580.44;2621782;54;20034;-65
2022/04/19 02:23:35;;;;;;;5.43;3.60;;;;;;;6.10;55.58;98586.50;2621177;54;20023;-65
2022/04/19 02:26:05;;;;;;;5.47;3.78;;;;;;;6.18;55.83;98583.88;2621205;47;20534;-65
2022/04/19 02:28:37;;;;;;;6.15;4.25;;;;;;;6.22;55.87;98589.59;2620523;47;20038;-65
2022/04/19 02:31:18;;;;;;;7.70;4.63;;;;;;;6.34;55.49;98587.41;2621634;39;20487;-65
2022/04/19 02:33:56;;;;;;;6.70;4.28;;;;;;;6.39;55.03;98590.34;2621577;47;20026;-65
2022/04/19 02:36:26;;;;;;;6.60;3.85;;;;;;;6.37;55.29;98584.47;2620901;51;20034;-65
2022/04/19 02:38:59;;;;;;;5.35;4.28;;;;;;;6.31;55.13;98580.69;2620610;54;20039;-64
2022/04/19 02:41:31;;;;;;;;;;;;;;;6.36;55.31;98581.00;2621453;47;20033;-63
2022/04/19 02:44:06;;;;;;;6.97;3.58;;;;;;;6.33;54.84;98578.72;2621401;47;19946;-64
2022/04/19 02:46:37;;;;;;;8.82;4.05;;;;;;;6.33;54.71;98578.72;2621158;47;20046;-64
2022/04/19 02:49:10;;;;;;;5.20;4.47;;;;;;;6.26;55.33;98572.53;2620501;54;20027;-64
2022/04/19 02:51:40;;;;;;;5.57;3.80;;;;;;;6.24;55.20;98573.66;2622390;54;20117;-64
2022/04/19 02:54:12;;;;;;;7.10;4.53;;;;;;;6.18;55.09;98578.63;2621926;54;20022;-64
2022/04/19 02:56:42;;;;;;;7.05;4.57;;;;;;;5.99;55.66;98576.38;2622757;47;20026;-64
2022/04/19 02:59:12;;;;;;;6.25;4.22;;;;;;;6.07;55.47;98583.41;2622516;54;20034;-64
2022/04/19 03:01:42;;;;;;;4.95;3.88;;;;;;;6.08;55.65;98575.38;2622493;54;20034;-64
2022/04/19 03:04:13;;;;;;;6.07;3.60;;;;;;;6.09;55.59;98571.75;2622496;39;20449;-63
2022/04/19 03:06:42;;;;;;;4.85;3.90;;;;;;;5.94;55.55;98569.00;2620377;47;20551;-63
2022/04/19 03:09:15;;;;;;;9.30;4.55;;;;;;;5.82;56.03;98569.50;2620373;54;20018;-63
2022/04/19 03:11:45;;;;;;;11.32;6.40;;;;;;;5.76;56.39;98568.38;2620414;47;20166;-64
2022/04/19 03:14:17;;;;;;;6.60;4.93;;;;;;;5.61;56.09;98581.34;2620222;47;20039;-65
2022/04/19 03:16:48;;;;;;;5.55;3.83;;;;;;;5.47;56.92;98585.47;2620466;46;20061;-63
2022/04/19 03:19:19;;;;;;;5.97;4.07;;;;;;;5.59;57.29;98582.50;2620223;51;20027;-63
2022/04/19 03:21:48;;;;;;;3.53;3.10;;;;;;;5.66;56.87;98581.66;2619428;47;20023;-64
2022/04/19 03:29:45;;;;;;;6.03;3.97;;;;;;;5.53;57.37;98575.31;2619211;47;20663;-63
2022/04/19 03:32:19;;;;;;;5.55;3.72;;;;;;;5.40;57.08;98575.81;2618989;47;20561;-64
2022/04/19 03:34:50;;;;;;;6.78;4.57;;;;;;;5.18;57.39;98580.75;2619105;54;20027;-64
2022/04/19 03:37:20;;;;;;;5.05;3.70;;;;;;;5.02;58.29;98569.41;2618445;51;20038;-65
2022/04/19 03:39:55;;;;;;;7.45;4.00;;;;;;;5.00;58.24;98574.81;2619593;51;20081;-64
2022/04/19 03:42:25;;;;;;;3.85;3.25;;;;;;;4.95;57.94;98569.25;2621494;54;20038;-64
2022/04/19 03:44:56;;;;;;;3.65;3.30;;;;;;;4.86;58.34;98565.00;2622492;54;20038;-64
2022/04/19 03:47:26;;;;;;;5.47;4.05;;;;;;;4.88;58.30;98568.25;2622801;54;20023;-63
2022/04/19 03:49:55;;;;;;;5.35;4.13;;;;;;;4.87;58.35;98562.19;2623430;47;20030;-63
2022/04/19 03:52:26;;;;;;;4.75;3.60;;;;;;;4.91;58.33;98566.13;2623196;54;20030;-64
2022/04/19 03:54:58;;;;;;;4.47;3.28;;;;;;;4.92;58.43;98565.16;2623170;54;20026;-64
2022/04/19 03:57:28;;;;;;;9.85;3.83;;;;;;;4.91;57.88;98560.91;2623055;47;20031;-64
2022/04/19 03:59:58;;;;;;;4.90;3.80;;;;;;;4.95;57.88;98572.69;2623190;47;20118;-64
2022/04/19 04:02:34;;;;;;;5.18;3.60;;;;;;;4.85;57.96;98561.53;2623617;54;20034;-64
2022/04/19 04:05:04;;;;;;;5.70;3.10;;;;;;;4.70;57.94;98561.34;2623703;54;20063;-64
2022/04/19 04:07:38;;;;;;;4.07;3.55;;;;;;;4.67;58.35;98568.72;2624860;39;20418;-64
2022/04/19 04:10:11;;;;;;;4.30;2.75;;;;;;;4.66;58.32;98573.13;2623727;54;20057;-65
2022/04/19 04:12:41;;;;;;;5.03;3.38;;;;;;;4.63;58.30;98570.00;2623222;47;20042;-65
2022/04/19 04:15:13;;;;;;;9.25;3.85;;;;;;;4.60;58.78;98567.72;2623040;39;20467;-66
2022/04/19 04:17:43;;;;;;;7.88;3.63;;;;;;;4.56;58.54;98569.81;2623062;39;20459;-65
2022/04/19 04:20:14;;;;;;;5.57;3.85;;;;;;;4.57;58.63;98579.34;2623674;39;20411;-65
2022/04/19 04:22:44;;;;;;;6.18;3.78;;;;;;;4.61;59.05;98578.03;2622785;47;20027;-64
2022/04/19 04:25:23;;;;;;;4.03;3.53;;;;;;;4.70;58.85;98571.03;2622717;47;20026;-63
2022/04/19 04:27:52;;;;;;;4.57;3.70;;;;;;;4.61;59.17;98582.44;2622359;54;20026;-63
2022/04/19 04:30:24;;;;;;;4.05;3.38;;;;;;;4.59;58.85;98579.97;2622792;54;20027;-63
2022/04/19 04:33:00;;;;;;;6.82;3.50;;;;;;;4.50;59.40;98577.50;2622943;47;20034;-64
2022/04/19 04:35:29;;;;;;;5.60;4.15;;;;;;;4.42;59.63;98579.13;2623662;54;20038;-65
2022/04/19 04:37:59;;;;;;;4.72;3.60;;;;;;;4.45;59.46;98572.75;2622758;54;20086;-64
2022/04/19 04:40:32;;;;;;;7.43;4.43;;;;;;;4.46;59.58;98577.00;2622734;54;20038;-63
2022/04/19 04:43:07;;;;;;;5.40;3.47;;;;;;;4.53;59.69;98579.78;2622709;54;20074;-63
2022/04/19 04:45:37;;;;;;;5.93;3.63;;;;;;;4.57;58.91;98575.88;2622767;47;20027;-63
2022/04/19 04:50:49;;;;;;;7.82;4.78;;;;;;;4.36;59.59;98576.31;2622836;47;20038;-64
2022/04/19 04:53:19;;;;;;;5.93;4.03;;;;;;;4.36;59.55;98587.59;2623882;54;20110;-64
2022/04/19 04:56:07;;;;;;;6.03;4.50;;;;;;;4.35;59.95;98574.69;2624197;47;20034;-64
2022/04/19 04:58:37;;;;;;;10.55;3.78;;;;;;;4.37;59.44;98576.16;2623639;54;20562;-63
2022/04/19 05:01:07;;;;;;;8.32;4.07;;;;;;;4.46;59.39;98579.63;2621947;54;20034;-64
2022/04/19 05:03:38;;;;;;;7.10;4.22;;;;;;;4.50;59.58;98580.94;2622243;47;20040;-64
2022/04/19 05:06:08;;;;;;;6.30;4.30;;;;;;;4.46;59.01;98582.25;2623316;39;20463;-64
2022/04/19 05:08:38;;;;;;;7.35;4.32;;;;;;;4.36;59.69;98577.13;2621379;54;20134;-64
2022/04/19 05:11:10;;;;;;;10.27;4.80;;;;;;;4.42;59.84;98578.31;2621548;54;20027;-64
2022/04/19 05:13:40;;;;;;;7.78;4.60;;;;;;;4.47;59.95;98581.25;2621354;54;20553;-65
2022/04/19 05:16:11;;;;;;;6.43;4.50;;;;;;;4.54;59.31;98584.06;2623272;47;20062;-65
2022/04/19 05:18:41;;;;;;;7.57;4.65;;;;;;;4.61;59.55;98583.28;2623897;54;20030;-64
2022/04/19 05:21:10;;;;;;;6.93;4.15;;;;;;;4.74;59.26;98587.22;2623158;54;20558;-65
2022/04/19 05:23:40;;;;;;;6.35;4.10;;;;;;;4.81;59.17;98583.78;2624055;50;20031;-64
2022/04/19 05:26:14;;;;;;;8.82;4.28;;;;;;;4.88;58.72;98590.03;2624716;54;20030;-65
2022/04/19 05:28:44;;;;;;;8.07;4.57;;;;;;;4.94;58.65;98586.78;2624124;54;20030;-66
2022/04/19 05:31:14;;;;;;;5.15;4.07;;;;;;;5.04;58.66;98593.66;2624801;46;20031;-65
2022/04/19 05:33:44;;;;;;;6.00;4.10;;;;;;;5.07;58.34;98591.53;2623944;54;20031;-65
2022/04/19 05:36:14;;;;;;;14.52;3.65;;;;;;;5.17;57.88;98599.22;2623743;54;20034;-65
2022/04/19 05:38:44;;;;;;;13.05;4.07;;;;;;;5.16;58.16;98593.16;2624025;54;20576;-63
2022/04/19 05:41:17;;;;;;;4.85;3.50;;;;;;;5.26;58.05;98594.81;2623555;54;20081;-63
2022/04/19 05:43:47;;;;;;;7.05;3.78;;;;;;;5.33;57.98;98590.56;2622611;54;20026;-64
2022/04/19 05:46:20;;;;;;;10.88;4.00;;;;;;;5.43;57.34;98591.22;2621248;54;20133;-63
2022/04/19 05:48:50;;;;;;;4.75;3.75;;;;;;;5.41;57.23;98594.00;2621394;54;20034;-63
2022/04/19 05:51:20;;;;;;;7.03;3.90;;;;;;;5.40;57.26;98588.91;2621761;47;20048;-63
2022/04/19 05:53:50;;;;;;;6.55;3.70;;;;;;;5.40;57.34;98597.59;2621599;47;20577;-64
2022/04/19 05:56:22;;;;;;;7.85;3.88;;;;;;;5.53;57.27;98599.72;2620812;54;20027;-65
2022/04/19 05:58:52;;;;;;;5.18;3.60;;;;;;;5.58;56.66;98594.78;2619878;47;20033;-64
2022/04/19 06:01:22;;;;;;;4.65;3.60;;;;;;;5.67;57.09;98599.06;2620987;54;20041;-64
2022/04/19 06:06:39;;;;;;;6.20;3.95;;;;;;;5.88;56.57;98595.09;2620013;47;20030;-64
2022/04/19 06:09:12;;;;;;;5.95;4.10;;;;;;;5.91;56.42;98592.91;2620142;54;20032;-65
2022/04/19 06:11:44;;;;;;;4.20;3.75;;;;;;;6.06;56.83;98592.28;2621353;47;20022;-65
2022/04/19 06:14:14;;;;;;;12.18;4.32;;;;;;;6.31;56.49;98593.00;2623756;39;20419;-65
2022/04/19 06:16:44;;;;;;;6.85;4.22;;;;;;;6.45;56.07;98601.00;2622859;54;20035;-64
2022/04/19 06:19:15;;;;;;;7.07;4.00;;;;;;;6.58;55.71;98600.44;2622674;47;20038;-65
2022/04/19 06:21:45;;;;;;;8.63;4.50;;;;;;;6.68;55.46;98603.66;2622339;54;20034;-64
2022/04/19 06:24:14;;;;;;;10.65;4.45;;;;;;;6.77;55.26;98609.69;2622199;47;20554;-64
2022/04/19 06:26:47;;;;;;;8.23;4.10;;;;;;;6.89;55.34;98603.03;2622761;54;20081;-65
2022/04/19 06:29:22;;;;;;;11.23;4.68;;;;;;;7.06;54.66;98606.41;2622231;54;20033;-64
2022/04/19 06:31:56;;;;;;;7.65;4.22;;;;;;;7.06;54.09;98601.16;2622583;54;20053;-65
2022/04/19 06:34:41;;;;;;;7.97;4.07;;;;;;;7.11;54.46;98598.81;2622583;54;20038;-64
2022/04/19 06:37:13;;;;;;;6.13;3.60;;;;;;;7.25;54.31;98597.22;2622284;47;20042;-64
2022/04/19 06:39:47;;;;;;;7.43;4.15;;;;;;;7.39;53.99;98604.34;2622494;54;20026;-65
2022/04/19 06:42:20;;;;;;;7.18;4.85;;;;;;;7.50;53.45;98597.00;2621769;54;20950;-65
2022/04/19 06:45:24;;;;;;;17.52;5.40;;;;;;;7.59;53.33;98602.03;2621983;54;20053;-65
2022/04/19 06:48:01;;;;;;;7.22;4.55;;;;;;;7.76;53.30;98592.19;2621178;54;20129;-65
2022/04/19 06:50:35;;;;;;;8.23;4.47;;;;;;;7.95;52.84;98586.38;2621740;54;20033;-65
2022/04/19 06:53:11;;;;;;;9.38;4.75;;;;;;;8.18;52.54;98585.47;2620988;54;20035;-65
2022/04/19 06:56:01;;;;;;;5.65;4.45;;;;;;;8.32;52.38;98582.00;2619833;46;20069;-65
2022/04/19 06:58:34;;;;;;;5.15;4.28;;;;;;;8.44;51.52;98588.47;2619703;54;20042;-65
2022/04/19 07:01:05;;;;;;;7.00;4.07;;;;;;;8.46;51.36;98582.22;2621126;39;20431;-64
2022/04/19 07:03:35;;;;;;;8.63;4.30;;;;;;;8.55;50.94;98573.19;2620732;54;20519;-63
2022/04/19 07:06:23;;;;;;;7.70;4.50;;;;;;;8.58;50.60;98575.47;2621562;54;20538;-64
2022/04/19 07:08:52;;;;;;;7.55;4.85;;;;;;;8.66;50.62;98570.09;2620653;47;20022;-64
2022/04/19 07:11:22;;;;;;;10.00;4.63;;;;;;;8.80;50.28;98577.13;2620974;51;20042;-65
2022/04/19 07:14:13;;;;;;;7.90;5.45;;;;;;;8.99;50.11;98574.91;2621428;54;20033;-64
2022/04/19 07:17:02;;;;;;;10.02;5.88;;;;;;;9.17;49.73;98575.25;2620862;54;20038;-64
2022/04/19 07:27:53;;;;;;;15.02;9.05;;;;;;;9.65;47.71;98570.19;2619691;47;20038;-64
2022/04/19 07:30:32;;;;;;;15.25;10.00;;;;;;;9.78;47.57;98567.63;2619655;54;20038;-65
2022/04/19 07:33:05;;;;;;;9.63;6.53;;;;;;;9.89;47.49;98569.72;2619462;47;20026;-64
2022/04/19 07:35:38;;;;;;;18.05;12.45;;;;;;;10.00;47.32;98571.03;2619446;47;20276;-65
2022/04/19 07:38:08;;;;;;;17.17;8.43;;;;;;;10.16;47.08;98565.44;2619126;47;20565;-65
2022/04/19 07:40:51;;;;;;;15.00;9.35;;;;;;;10.29;46.13;98570.00;2619827;47;20038;-66
2022/04/19 07:43:21;;;;;;;15.18;9.32;;;;;;;10.35;45.45;98566.53;2620369;54;20038;-65
2022/04/19 07:45:53;;;;;;;9.63;6.10;;;;;;;10.47;44.48;98569.44;2621487;39;20442;-66
2022/04/19 07:48:24;;;;;;;8.18;4.55;;;;;;;10.52;44.78;98564.38;2620720;54;20039;-65
2022/04/19 07:50:53;;;;;;;5.53;4.15;;;;;;;10.56;44.53;98560.31;2621544;54;20041;-64
2022/04/19 07:53:23;;;;;;;9.60;4.80;;;;;;;10.67;44.42;98558.94;2621817;54;20046;-66
2022/04/19 07:55:57;;;;;;;9.00;3.72;;;;;;;10.82;44.26;98558.78;2619734;47;20029;-65
2022/04/19 07:58:28;;;;;;;5.63;3.65;;;;;;;11.08;43.20;98553.53;2619090;54;20558;-66
2022/04/19 08:01:00;;;;;;;4.20;2.88;;;;;;;11.30;42.14;98551.50;2619625;54;20610;-66
2022/04/19 08:03:30;;;;;;;5.05;3.25;;;;;;;11.41;42.01;98548.25;2620068;54;20041;-65
2022/04/19 08:05:59;;;;;;;6.38;3.10;;;;;;;11.56;41.27;98547.25;2619060;47;20035;-65
2022/04/19 08:08:29;;;;;;;4.22;2.70;;;;;;;11.74;40.92;98544.75;2619431;47;20022;-66
2022/04/19 08:10:59;;;;;;;5.05;3.60;;;;;;;11.78;40.95;98543.34;2620182;54;20037;-65
2022/04/19 08:13:28;;;;;;;4.13;3.03;;;;;;;11.95;40.65;98537.63;2619208;47;20687;-65
2022/04/19 08:16:01;;;;;;;8.48;4.75;;;;;;;12.13;39.94;98538.59;2619388;51;20030;-65
2022/04/19 08:18:31;;;;;;;21.15;17.42;;;;;;;12.22;40.00;98538.38;2618709;54;20134;-65
2022/04/19 08:21:01;;;;;;;8.23;4.20;;;;;;;12.39;39.88;98534.22;2619119;46;20038;-66
2022/04/19 08:23:31;;;;;;;10.65;6.47;;;;;;;12.52;39.96;98528.03;2619557;54;20038;-64
2022/04/19 08:26:08;;;;;;;10.85;7.45;;;;;;;12.60;39.92;98527.78;2619860;54;20027;-64
2022/04/19 08:28:39;;;;;;;6.50;3.92;;;;;;;12.66;39.96;98518.19;2619711;47;20030;-65
2022/04/19 08:31:12;;;;;;;5.82;3.40;;;;;;;12.79;39.63;98520.75;2620668;54;20574;-64
2022/04/19 08:33:42;;;;;;;5.57;3.00;;;;;;;12.99;39.51;98517.97;2620904;47;20034;-64
2022/04/19 08:36:16;;;;;;;6.72;3.88;;;;;;;13.07;39.80;98521.19;2620478;54;20029;-64
2022/04/19 08:38:46;;;;;;;5.20;3.28;;;;;;;13.11;39.21;98508.31;2620975;54;20554;-64
2022/04/19 08:41:18;;;;;;;5.32;3.30;;;;;;;13.19;39.36;98509.88;2620679;39;20123;-65
2022/04/19 08:43:50;;;;;;;7.53;3.28;;;;;;;13.31;39.80;98511.63;2619960;47;20035;-63
2022/04/19 08:46:23;;;;;;;4.40;3.38;;;;;;;13.45;39.14;98508.88;2620763;54;20539;-64
2022/04/19 08:48:53;;;;;;;6.40;3.38;;;;;;;13.60;39.01;98509.34;2620112;54;20042;-64
2022/04/19 08:51:25;;;;;;;6.07;2.80;;;;;;;13.71;38.58;98510.44;2621193;39;20408;-64
2022/04/19 08:59:29;;;;;;;3.53;3.20;;;;;;;14.01;38.34;98505.25;2619436;54;20022;-65
2022/04/19 09:02:02;;;;;;;5.40;3.08;;;;;;;14.13;37.97;98504.28;2619301;54;20035;-65
2022/04/19 09:04:33;;;;;;;3.83;2.50;;;;;;;14.28;37.83;98505.72;2619572;54;20045;-65
2022/04/19 09:07:04;;;;;;;3.47;2.38;;;;;;;14.38;37.64;98508.69;2618804;47;20027;-64
2022/04/19 09:09:36;;;;;;;4.70;3.40;;;;;;;14.59;37.36;98500.22;2619413;54;20038;-65
2022/04/19 09:12:11;;;;;;;5.45;3.35;;;;;;;14.81;36.96;98497.88;2618782;54;20571;-65
2022/04/19 09:14:58;;;;;;;4.90;2.90;;;;;;;15.01;35.77;98500.22;2619792;54;20030;-64
2022/04/19 09:17:40;;;;;;;8.85;3.72;;;;;;;15.07;35.88;98494.00;2618525;54;20030;-65
2022/04/19 09:20:11;;;;;;;5.18;2.17;;;;;;;15.15;36.14;98492.06;2619263;54;20038;-65
2022/04/19 09:22:42;;;;;;;3.22;2.40;;;;;;;15.11;36.21;98484.53;2619803;54;20155;-64
2022/04/19 09:25:17;;;;;;;4.10;2.85;;;;;;;15.15;35.40;98484.06;2619837;54;20045;-64
2022/04/19 09:27:47;;;;;;;6.25;2.78;;;;;;;15.13;35.82;98476.28;2619479;54;20538;-63
2022/04/19 09:30:22;;;;;;;4.28;2.70;;;;;;;15.22;35.24;98480.22;2620974;39;20125;-64
2022/04/19 09:33:12;;;;;;;11.98;5.72;;;;;;;15.29;35.13;98475.63;2619865;54;20050;-63
2022/04/19 09:35:44;;;;;;;6.43;5.22;;;;;;;15.42;34.91;98466.59;2619835;54;20043;-63
2022/04/19 09:38:14;;;;;;;4.07;2.90;;;;;;;15.68;34.61;98470.66;2619783;47;20059;-63
2022/04/19 09:40:46;;;;;;;4.82;3.90;;;;;;;15.75;33.82;98454.53;2620078;54;20034;-64
2022/04/19 09:43:34;;;;;;;4.65;3.42;;;;;;;15.75;34.06;98449.22;2619969;54;20111;-63
2022/04/19 09:46:06;;;;;;;4.80;2.72;;;;;;;15.85;34.32;98449.44;2620679;54;20034;-63
2022/04/19 09:48:39;;;;;;;3.10;2.67;;;;;;;16.05;33.71;98451.72;2619958;54;20023;-64
2022/04/19 09:51:10;;;;;;;3.30;2.70;;;;;;;16.23;33.04;98443.53;2620359;54;20069;-63
2022/04/19 09:53:42;;;;;;;4.68;2.83;;;;;;;16.30;32.47;98446.06;2620191;54;20042;-65
2022/04/19 09:56:13;;;;;;;3.80;2.63;;;;;;;16.30;32.14;98449.53;2620082;54;20030;-63
2022/04/19 09:59:05;;;;;;;4.20;2.63;;;;;;;16.24;32.65;98441.66;2620071;54;20567;-64
2022/04/19 10:09:45;;;;;;;3.35;2.40;;;;;;;16.39;32.64;98425.94;2620191;54;20537;-65
2022/04/19 10:12:15;;;;;;;3.55;2.95;;;;;;;16.46;32.38;98421.28;2619186;54;20554;-64
2022/04/19 10:14:47;;;;;;;2.80;2.50;;;;;;;16.53;31.98;98421.94;2620043;54;20538;-64
2022/04/19 10:17:17;;;;;;;3.75;3.00;;;;;;;16.55;31.18;98421.69;2620631;54;20566;-64
2022/04/19 10:19:51;;;;;;;2.83;2.42;;;;;;;16.73;30.92;98429.50;2621036;54;20139;-64
2022/04/19 10:22:20;;;;;;;2.83;2.60;;;;;;;16.79;29.71;98419.75;2621657;39;20435;-64
2022/04/19 10:24:52;;;;;;;3.38;2.13;;;;;;;16.88;30.59;98423.63;2620533;54;20035;-64
2022/04/19 10:27:22;;;;;;;3.50;2.95;;;;;;;16.95;29.71;98413.59;2619671;54;20163;-65
2022/04/19 10:29:54;;;;;;;10.52;7.75;;;;;;;17.02;29.80;98416.06;2619759;54;20081;-64
2022/04/19 10:32:33;;;;;;;5.60;4.00;;;;;;;17.18;29.23;98420.59;2618913;54;20069;-66
2022/04/19 10:35:09;;;;;;;6.00;5.38;;;;;;;17.18;29.29;98412.59;2618897;54;20507;-65
2022/04/19 10:37:38;;;;;;;5.40;4.50;;;;;;;17.21;29.60;98412.09;2618574;54;20042;-64
2022/04/19 10:40:13;;;;;;;3.72;3.05;;;;;;;17.14;29.23;98406.13;2618935;54;20053;-64
2022/04/19 10:42:43;;;;;;;3.28;2.47;;;;;;;17.11;29.46;98405.81;2619513;54;20038;-66
2022/04/19 10:45:25;;;;;;;2.75;2.45;;;;;;;17.15;29.25;98407.75;2619479;54;20033;-65
2022/04/19 10:48:07;;;;;;;9.35;2.85;;;;;;;17.08;29.04;98399.91;2618764;47;20049;-65
2022/04/19 10:50:44;;;;;;;2.33;2.03;;;;;;;17.15;28.69;98398.94;2618834;54;20039;-65
2022/04/19 10:53:14;;;;;;;4.88;3.70;;;;;;;17.39;28.63;98408.38;2619513;54;20034;-65
2022/04/19 10:56:02;;;;;;;9.13;5.82;;;;;;;17.40;28.86;98404.63;2618877;54;20582;-64
2022/04/19 10:58:41;;;;;;;2.50;2.25;;;;;;;17.59;28.53;98399.78;2618324;54;20026;-65
2022/04/19 11:01:30;;;;;;;3.83;2.58;;;;;;;17.45;28.57;98401.22;2618785;54;20031;-63
2022/04/19 11:04:00;;;;;;;4.82;3.38;;;;;;;17.46;28.76;98392.94;2618709;47;20030;-65
2022/04/19 11:06:41;;;;;;;3.63;2.67;;;;;;;17.51;28.36;98400.22;2619213;54;20042;-64
2022/04/19 11:09:19;;;;;;;3.88;2.30;;;;;;;17.51;28.63;98394.88;2619782;54;20034;-65
2022/04/19 11:11:51;;;;;;;3.63;2.92;;;;;;;17.69;28.69;98393.78;2619605;47;20039;-64
2022/04/19 11:14:40;;;;;;;3.15;2.22;;;;;;;17.83;28.46;98389.69;2620089;54;20027;-64
2022/04/19 11:17:29;;;;;;;3.45;2.88;;;;;;;17.95;27.89;98394.91;2619456;39;20379;-64
2022/04/19 11:20:14;;;;;;;4.63;2.78;;;;;;;17.87;28.24;98398.84;2619594;47;20043;-63
2022/04/19 11:22:51;;;;;;;3.15;2.47;;;;;;;17.65;28.11;98392.66;2619688;47;20034;-64
2022/04/19 11:25:40;;;;;;;2.72;2.17;;;;;;;17.68;28.89;98387.63;2619418;54;20038;-64
2022/04/19 11:28:23;;;;;;;3.72;2.33;;;;;;;17.72;28.45;98388.75;2619272;54;20042;-65
2022/04/19 11:31:16;;;;;;;2.65;2.45;;;;;;;17.70;28.66;98382.03;2619918;54;20693;-65
2022/04/19 11:33:48;;;;;;;3.10;2.80;;;;;;;17.72;28.50;98379.94;2619039;54;20026;-64
2022/04/19 11:36:19;;;;;;;5.55;3.15;;;;;;;17.76;28.89;98381.06;2618796;54;20042;-65
2022/04/19 11:38:53;;;;;;;4.05;2.90;;;;;;;17.91;28.11;98375.09;2618685;54;20034;-66
2022/04/19 11:46:54;;;;;;;2.40;2.20;;;;;;;18.15;28.29;98360.38;2619126;54;20057;-65
2022/04/19 11:49:28;;;;;;;3.85;2.28;;;;;;;18.34;28.33;98352.00;2619920;54;20631;-65
2022/04/19 11:51:59;;;;;;;2.50;2.30;;;;;;;18.50;28.01;98356.44;2619136;47;20027;-66
2022/04/19 11:54:33;;;;;;;6.60;3.45;;;;;;;18.64;27.57;98360.28;2620571;39;20427;-65
2022/04/19 11:57:04;;;;;;;5.45;2.95;;;;;;;18.70;27.60;98351.28;2619492;54;20045;-64
2022/04/19 11:59:36;;;;;;;4.10;3.70;;;;;;;18.66;27.52;98352.00;2619100;47;20034;-66
2022/04/19 12:02:16;;;;;;;5.03;3.70;;;;;;;18.65;27.85;98356.53;2619691;54;20030;-65
2022/04/19 12:04:56;;;;;;;5.57;3.75;;;;;;;18.73;27.10;98349.94;2620149;54;20045;-65
2022/04/19 12:07:27;;;;;;;4.45;3.10;;;;;;;18.75;27.21;98348.63;2619402;54;20120;-65
2022/04/19 12:10:00;;;;;;;4.65;3.40;;;;;;;18.95;26.50;98350.63;2620047;54;20042;-66
2022/04/19 12:12:30;;;;;;;;;;;;;;;19.03;26.77;98346.69;2619709;54;20508;-66
2022/04/19 12:15:08;;;;;;;3.53;2.97;;;;;;;19.12;26.84;98331.72;2619538;54;20477;-65
2022/04/19 12:17:45;;;;;;;3.53;2.78;;;;;;;19.17;26.67;98344.34;2619361;54;20046;-66
2022/04/19 12:20:15;;;;;;;3.75;3.10;;;;;;;18.72;26.44;98349.13;2620177;39;20451;-66
2022/04/19 12:22:50;;;;;;;3.53;2.80;;;;;;;18.70;26.84;98343.22;2619819;54;20035;-64
2022/04/19 12:25:26;;;;;;;2.92;2.63;;;;;;;18.92;27.05;98334.28;2620084;54;20045;-66
2022/04/19 12:27:58;;;;;;;14.25;3.40;;;;;;;19.07;26.57;98350.44;2619998;54;20094;-64
2022/04/19 12:30:30;;;;;;;3.60;2.83;;;;;;;18.87;26.57;98334.25;2620188;54;20035;-66
2022/04/19 12:33:03;;;;;;;5.18;3.00;;;;;;;19.01;26.43;98340.75;2619926;54;20124;-64
2022/04/19 12:35:34;;;;;;;6.13;3.78;;;;;;;19.23;26.39;98325.34;2619651;54;20034;-65
2022/04/19 12:38:13;;;;;;;6.22;3.70;;;;;;;19.21;25.79;98334.72;2620198;54;20037;-65
2022/04/19 12:40:47;;;;;;;5.43;4.47;;;;;;;19.23;26.52;98329.91;2620839;39;20556;-65
2022/04/19 16:23:24;;;;;;;9.23;6.78;;;;;;;19.07;25.16;98270.09;2617998;54;20039;-67
2022/04/19 16:25:56;;;;;;;10.93;7.22;;;;;;;18.96;25.84;98277.25;2617731;54;20149;-67
2022/04/19 16:28:28;;;;;;;9.80;7.00;;;;;;;18.91;25.95;98277.22;2617229;39;20473;-69
2022/04/19 16:30:59;;;;;;;8.52;6.13;;;;;;;18.96;25.46;98271.09;2617699;54;20087;-68